createdAt,value
2022-12-15T00:00:48.163Z,-10.02
2022-12-15T00:01:47.497Z,-10.05
2022-12-15T00:02:48.487Z,-10.12
2022-12-15T00:03:48.091Z,-10.15
2022-12-15T00:04:47.297Z,-10.19
2022-12-15T00:05:49.923Z,-10.21
2022-12-15T00:06:47.341Z,-10.25
2022-12-15T00:07:47.337Z,-10.34
2022-12-15T00:08:47.142Z,-10.33
2022-12-15T00:09:48.171Z,-10.39
2022-12-15T00:10:47.254Z,-10.40
2022-12-15T00:11:49.001Z,-10.34
2022-12-15T00:12:48.462Z,-10.21
2022-12-15T00:13:48.917Z,-10.16
2022-12-15T00:14:47.900Z,-10.13
2022-12-15T00:15:47.955Z,-10.12
2022-12-15T00:16:47.993Z,-10.13
2022-12-15T00:17:46.834Z,-10.13
2022-12-15T00:18:46.833Z,-10.19
2022-12-15T00:19:46.820Z,-10.25
2022-12-15T00:20:46.821Z,-10.28
2022-12-15T00:21:46.828Z,-10.37
2022-12-15T00:22:46.792Z,-10.36
2022-12-15T00:23:46.773Z,-10.37
2022-12-15T00:24:49.617Z,-10.34
2022-12-15T00:25:46.761Z,-10.30
2022-12-15T00:26:46.766Z,-10.26
2022-12-15T00:27:46.733Z,-10.28
2022-12-15T00:28:46.730Z,-10.33
2022-12-15T00:29:46.711Z,-10.36
2022-12-15T00:30:49.723Z,-10.41
2022-12-15T00:31:46.740Z,-10.46
2022-12-15T00:32:46.675Z,-10.50
2022-12-15T00:33:46.667Z,-10.54
2022-12-15T00:34:46.665Z,-10.54
2022-12-15T00:35:46.633Z,-10.52
2022-12-15T00:36:46.652Z,-10.51
2022-12-15T00:37:46.605Z,-10.51
2022-12-15T00:38:46.598Z,-10.54
2022-12-15T00:39:46.587Z,-10.57
2022-12-15T00:40:46.575Z,-10.57
2022-12-15T00:41:46.575Z,-10.55
2022-12-15T00:42:47.825Z,-10.57
2022-12-15T00:43:46.535Z,-10.57
2022-12-15T00:44:46.523Z,-10.52
2022-12-15T00:45:46.513Z,-10.52
2022-12-15T00:46:46.628Z,-10.57
2022-12-15T00:47:46.502Z,-10.60
2022-12-15T00:48:46.481Z,-10.62
2022-12-15T00:49:46.463Z,-10.64
2022-12-15T00:50:46.462Z,-10.65
2022-12-15T00:51:46.459Z,-10.68
2022-12-15T00:52:46.429Z,-10.71
2022-12-15T00:53:46.421Z,-10.73
2022-12-15T00:54:46.421Z,-10.75
2022-12-15T00:55:46.419Z,-10.73
2022-12-15T00:56:46.409Z,-10.81
2022-12-15T00:57:46.372Z,-10.88
2022-12-15T00:58:46.370Z,-10.93
2022-12-15T00:59:46.357Z,-10.95
2022-12-15T01:00:46.347Z,-11.01
2022-12-15T01:01:46.385Z,-11.04
2022-12-15T01:02:46.518Z,-11.06
2022-12-15T01:03:46.369Z,-11.08
2022-12-15T01:04:46.296Z,-11.09
2022-12-15T01:05:46.276Z,-11.08
2022-12-15T01:06:46.295Z,-11.11
2022-12-15T01:07:49.820Z,-11.09
2022-12-15T01:08:46.251Z,-11.11
2022-12-15T01:09:46.232Z,-11.09
2022-12-15T01:10:46.215Z,-11.06
2022-12-15T01:11:46.224Z,-11.08
2022-12-15T01:12:46.213Z,-11.06
2022-12-15T01:13:46.184Z,-11.03
2022-12-15T01:14:46.185Z,-11.01
2022-12-15T01:15:46.208Z,-10.98
2022-12-15T01:16:46.172Z,-10.91
2022-12-15T01:17:46.149Z,-10.83
2022-12-15T01:18:47.872Z,-10.78
2022-12-15T01:19:46.140Z,-10.75
2022-12-15T01:20:46.110Z,-10.73
2022-12-15T01:21:46.114Z,-10.72
2022-12-15T01:22:46.090Z,-10.76
2022-12-15T01:23:46.069Z,-10.81
2022-12-15T01:24:46.059Z,-10.86
2022-12-15T01:25:46.047Z,-10.93
2022-12-15T01:26:46.059Z,-10.93
2022-12-15T01:27:46.029Z,-10.98
2022-12-15T01:28:46.009Z,-10.98
2022-12-15T01:29:45.998Z,-11.04
2022-12-15T01:30:45.987Z,-11.08
2022-12-15T01:31:46.080Z,-11.11
2022-12-15T01:32:46.491Z,-11.13
2022-12-15T01:33:45.965Z,-11.16
2022-12-15T01:34:45.944Z,-11.19
2022-12-15T01:35:45.925Z,-11.18
2022-12-15T01:36:45.935Z,-11.21
2022-12-15T01:37:45.914Z,-11.22
2022-12-15T01:38:50.697Z,-11.21
2022-12-15T01:39:46.898Z,-11.26
2022-12-15T01:40:45.872Z,-11.21
2022-12-15T01:41:45.882Z,-11.18
2022-12-15T01:42:45.853Z,-11.13
2022-12-15T01:43:45.833Z,-11.09
2022-12-15T01:44:45.831Z,-11.08
2022-12-15T01:45:45.811Z,-11.11
2022-12-15T01:46:45.962Z,-11.13
2022-12-15T01:47:45.789Z,-11.15
2022-12-15T01:48:45.774Z,-11.16
2022-12-15T01:49:45.760Z,-11.16
2022-12-15T01:50:45.750Z,-11.13
2022-12-15T01:51:45.770Z,-10.93
2022-12-15T01:52:45.729Z,-10.83
2022-12-15T01:53:45.708Z,-10.81
2022-12-15T01:54:45.717Z,-10.68
2022-12-15T01:55:45.678Z,-10.65
2022-12-15T01:56:45.690Z,-10.68
2022-12-15T01:57:45.676Z,-10.69
2022-12-15T01:58:45.655Z,-10.73
2022-12-15T01:59:45.647Z,-10.72
2022-12-15T02:00:45.705Z,-10.71
2022-12-15T02:01:49.589Z,-10.68
2022-12-15T02:02:45.695Z,-10.65
2022-12-15T02:03:45.586Z,-10.68
2022-12-15T02:04:45.586Z,-10.68
2022-12-15T02:05:45.574Z,-10.69
2022-12-15T02:06:45.574Z,-10.76
2022-12-15T02:07:45.554Z,-10.78
2022-12-15T02:08:45.533Z,-10.82
2022-12-15T02:09:45.525Z,-10.82
2022-12-15T02:10:45.523Z,-10.81
2022-12-15T02:11:45.522Z,-10.78
2022-12-15T02:12:45.495Z,-10.79
2022-12-15T02:13:45.473Z,-10.79
2022-12-15T02:14:45.469Z,-10.83
2022-12-15T02:15:45.455Z,-10.86
2022-12-15T02:16:45.494Z,-10.90
2022-12-15T02:17:45.430Z,-10.91
2022-12-15T02:18:45.421Z,-10.95
2022-12-15T02:19:45.420Z,-11.01
2022-12-15T02:20:45.399Z,-11.04
2022-12-15T02:21:45.398Z,-11.12
2022-12-15T02:22:45.370Z,-11.12
2022-12-15T02:23:45.399Z,-11.15
2022-12-15T02:24:45.361Z,-11.18
2022-12-15T02:25:45.339Z,-11.21
2022-12-15T02:26:46.354Z,-11.22
2022-12-15T02:27:45.317Z,-11.26
2022-12-15T02:28:45.311Z,-11.27
2022-12-15T02:29:45.302Z,-11.29
2022-12-15T02:30:45.284Z,-11.32
2022-12-15T02:31:45.318Z,-11.26
2022-12-15T02:32:45.276Z,-11.23
2022-12-15T02:33:45.254Z,-11.21
2022-12-15T02:34:45.226Z,-11.16
2022-12-15T02:35:45.233Z,-11.11
2022-12-15T02:36:45.193Z,-11.01
2022-12-15T02:37:45.224Z,-10.95
2022-12-15T02:38:45.233Z,-10.94
2022-12-15T02:39:45.172Z,-10.88
2022-12-15T02:40:45.160Z,-10.83
2022-12-15T02:41:45.162Z,-10.78
2022-12-15T02:42:45.160Z,-10.65
2022-12-15T02:43:45.140Z,-10.61
2022-12-15T02:44:45.119Z,-10.55
2022-12-15T02:45:45.129Z,-10.51
2022-12-15T02:46:45.098Z,-10.51
2022-12-15T02:47:45.102Z,-10.50
2022-12-15T02:48:45.070Z,-10.50
2022-12-15T02:49:45.067Z,-10.50
2022-12-15T02:50:45.050Z,-10.52
2022-12-15T02:51:45.036Z,-10.54
2022-12-15T02:52:45.042Z,-10.55
2022-12-15T02:53:45.024Z,-10.57
2022-12-15T02:54:45.004Z,-10.55
2022-12-15T02:55:44.987Z,-10.54
2022-12-15T02:56:44.975Z,-10.58
2022-12-15T02:57:44.974Z,-10.58
2022-12-15T02:58:44.957Z,-10.58
2022-12-15T02:59:44.935Z,-10.57
2022-12-15T03:00:45.025Z,-10.54
2022-12-15T03:01:45.086Z,-10.41
2022-12-15T03:02:45.025Z,-10.33
2022-12-15T03:03:44.894Z,-10.30
2022-12-15T03:04:44.873Z,-10.22
2022-12-15T03:05:44.884Z,-10.19
2022-12-15T03:06:44.849Z,-10.16
2022-12-15T03:07:44.872Z,-10.16
2022-12-15T03:08:44.831Z,-10.16
2022-12-15T03:09:44.830Z,-10.19
2022-12-15T03:10:44.811Z,-10.22
2022-12-15T03:11:44.800Z,-10.26
2022-12-15T03:12:44.820Z,-10.28
2022-12-15T03:13:44.793Z,-10.30
2022-12-15T03:14:44.759Z,-10.34
2022-12-15T03:15:44.769Z,-10.40
2022-12-15T03:16:44.794Z,-10.39
2022-12-15T03:17:44.757Z,-10.36
2022-12-15T03:18:44.739Z,-10.30
2022-12-15T03:19:44.708Z,-10.25
2022-12-15T03:20:44.698Z,-10.23
2022-12-15T03:21:44.686Z,-10.21
2022-12-15T03:22:44.677Z,-10.16
2022-12-15T03:23:44.656Z,-10.15
2022-12-15T03:24:44.643Z,-10.18
2022-12-15T03:25:44.637Z,-10.13
2022-12-15T03:26:44.623Z,-10.13
2022-12-15T03:27:44.625Z,-10.08
2022-12-15T03:28:44.602Z,-10.05
2022-12-15T03:29:44.594Z,-10.07
2022-12-15T03:30:44.819Z,-10.00
2022-12-15T03:31:44.633Z,-9.98
2022-12-15T03:32:44.562Z,-9.97
2022-12-15T03:33:44.550Z,-9.98
2022-12-15T03:34:44.924Z,-10.00
2022-12-15T03:35:45.532Z,-10.01
2022-12-15T03:36:44.502Z,-10.04
2022-12-15T03:37:44.514Z,-10.04
2022-12-15T03:38:44.479Z,-10.04
2022-12-15T03:39:44.478Z,-10.00
2022-12-15T03:40:44.450Z,-10.00
2022-12-15T03:41:44.448Z,-9.94
2022-12-15T03:42:44.449Z,-9.87
2022-12-15T03:43:44.419Z,-9.71
2022-12-15T03:44:44.400Z,-9.65
2022-12-15T03:45:44.464Z,-9.61
2022-12-15T03:46:44.378Z,-9.62
2022-12-15T03:47:44.398Z,-9.56
2022-12-15T03:48:44.358Z,-9.52
2022-12-15T03:49:44.347Z,-9.52
2022-12-15T03:50:44.334Z,-9.51
2022-12-15T03:51:44.331Z,-9.32
2022-12-15T03:52:44.326Z,-9.19
2022-12-15T03:53:44.303Z,-9.05
2022-12-15T03:54:44.413Z,-8.96
2022-12-15T03:55:44.286Z,-9.04
2022-12-15T03:56:44.290Z,-9.08
2022-12-15T03:57:44.273Z,-9.12
2022-12-15T03:58:44.244Z,-9.19
2022-12-15T03:59:44.223Z,-9.15
2022-12-15T04:00:44.213Z,-9.07
2022-12-15T04:01:44.282Z,-9.07
2022-12-15T04:02:44.311Z,-9.08
2022-12-15T04:03:44.247Z,-9.07
2022-12-15T04:04:44.169Z,-9.08
2022-12-15T04:05:44.162Z,-9.11
2022-12-15T04:06:44.141Z,-9.02
2022-12-15T04:07:44.150Z,-9.04
2022-12-15T04:08:44.130Z,-9.04
2022-12-15T04:09:44.130Z,-9.12
2022-12-15T04:10:44.107Z,-9.14
2022-12-15T04:11:44.093Z,-9.18
2022-12-15T04:12:44.116Z,-9.19
2022-12-15T04:13:44.068Z,-9.26
2022-12-15T04:14:44.049Z,-9.30
2022-12-15T04:15:44.055Z,-9.22
2022-12-15T04:16:44.068Z,-9.25
2022-12-15T04:17:44.038Z,-9.22
2022-12-15T04:18:44.006Z,-9.22
2022-12-15T04:19:43.997Z,-9.19
2022-12-15T04:20:43.977Z,-9.12
2022-12-15T04:21:43.977Z,-9.12
2022-12-15T04:22:43.967Z,-9.12
2022-12-15T04:23:43.954Z,-9.04
2022-12-15T04:24:43.935Z,-9.00
2022-12-15T04:25:43.934Z,-9.00
2022-12-15T04:26:43.913Z,-8.98
2022-12-15T04:27:43.925Z,-8.94
2022-12-15T04:28:43.894Z,-8.93
2022-12-15T04:29:43.883Z,-8.90
2022-12-15T04:30:43.972Z,-8.84
2022-12-15T04:31:43.862Z,-8.78
2022-12-15T04:32:43.851Z,-8.70
2022-12-15T04:33:43.829Z,-8.65
2022-12-15T04:34:43.810Z,-8.66
2022-12-15T04:35:43.812Z,-8.69
2022-12-15T04:36:44.791Z,-8.73
2022-12-15T04:37:43.801Z,-8.76
2022-12-15T04:38:50.607Z,-8.81
2022-12-15T04:39:44.762Z,-8.84
2022-12-15T04:40:43.790Z,-8.87
2022-12-15T04:41:43.737Z,-8.90
2022-12-15T04:42:43.738Z,-8.93
2022-12-15T04:43:43.720Z,-8.91
2022-12-15T04:44:43.698Z,-8.90
2022-12-15T04:45:44.764Z,-8.91
2022-12-15T04:46:43.777Z,-8.84
2022-12-15T04:47:43.673Z,-8.84
2022-12-15T04:48:43.647Z,-8.72
2022-12-15T04:49:43.646Z,-8.66
2022-12-15T04:50:43.626Z,-8.62
2022-12-15T04:51:43.628Z,-8.54
2022-12-15T04:52:43.627Z,-8.50
2022-12-15T04:53:43.598Z,-8.48
2022-12-15T04:54:43.588Z,-8.47
2022-12-15T04:55:43.586Z,-8.47
2022-12-15T04:56:43.555Z,-8.44
2022-12-15T04:57:43.572Z,-8.44
2022-12-15T04:58:43.534Z,-8.39
2022-12-15T04:59:43.522Z,-8.34
2022-12-15T05:00:43.503Z,-8.31
2022-12-15T05:01:43.616Z,-8.30
2022-12-15T05:02:43.589Z,-8.26
2022-12-15T05:03:43.474Z,-8.18
2022-12-15T05:04:43.499Z,-8.08
2022-12-15T05:05:43.451Z,-7.90
2022-12-15T05:06:43.439Z,-7.76
2022-12-15T05:07:43.439Z,-7.68
2022-12-15T05:08:43.437Z,-7.64
2022-12-15T05:09:43.398Z,-7.64
2022-12-15T05:10:43.392Z,-7.66
2022-12-15T05:11:43.377Z,-7.76
2022-12-15T05:12:43.377Z,-7.83
2022-12-15T05:13:43.358Z,-7.82
2022-12-15T05:14:43.338Z,-7.90
2022-12-15T05:15:43.357Z,-7.93
2022-12-15T05:16:43.382Z,-7.93
2022-12-15T05:17:43.333Z,-7.93
2022-12-15T05:18:43.295Z,-7.93
2022-12-15T05:19:43.295Z,-7.94
2022-12-15T05:20:43.256Z,-8.01
2022-12-15T05:21:43.266Z,-7.99
2022-12-15T05:22:43.333Z,-8.09
2022-12-15T05:23:43.310Z,-8.23
2022-12-15T05:24:43.343Z,-8.21
2022-12-15T05:25:43.300Z,-8.24
2022-12-15T05:26:44.677Z,-8.26
2022-12-15T05:27:43.232Z,-8.26
2022-12-15T05:28:43.265Z,-8.18
2022-12-15T05:29:43.200Z,-8.11
2022-12-15T05:30:43.231Z,-7.97
2022-12-15T05:31:43.223Z,-7.82
2022-12-15T05:32:43.223Z,-7.82
2022-12-15T05:33:43.119Z,-7.79
2022-12-15T05:34:43.079Z,-7.79
2022-12-15T05:35:43.091Z,-7.82
2022-12-15T05:36:43.205Z,-7.83
2022-12-15T05:37:43.192Z,-7.83
2022-12-15T05:38:43.076Z,-7.87
2022-12-15T05:39:43.129Z,-7.91
2022-12-15T05:40:43.018Z,-7.94
2022-12-15T05:41:43.153Z,-7.96
2022-12-15T05:42:43.037Z,-8.01
2022-12-15T05:43:42.994Z,-8.02
2022-12-15T05:44:42.966Z,-8.02
2022-12-15T05:45:42.957Z,-7.97
2022-12-15T05:46:43.020Z,-7.96
2022-12-15T05:47:42.926Z,-7.90
2022-12-15T05:48:42.936Z,-7.83
2022-12-15T05:49:42.920Z,-7.86
2022-12-15T05:50:42.885Z,-7.68
2022-12-15T05:51:42.885Z,-7.50
2022-12-15T05:52:46.282Z,-7.50
2022-12-15T05:53:43.885Z,-7.48
2022-12-15T05:54:42.847Z,-7.57
2022-12-15T05:55:42.835Z,-7.71
2022-12-15T05:56:42.813Z,-7.73
2022-12-15T05:57:42.817Z,-7.82
2022-12-15T05:58:45.365Z,-7.90
2022-12-15T05:59:42.792Z,-7.96
2022-12-15T06:00:42.774Z,-8.06
2022-12-15T06:01:42.825Z,-8.11
2022-12-15T06:02:42.778Z,-8.15
2022-12-15T06:03:42.738Z,-8.13
2022-12-15T06:04:42.747Z,-8.12
2022-12-15T06:05:42.697Z,-8.11
2022-12-15T06:06:42.688Z,-8.11
2022-12-15T06:07:42.681Z,-8.13
2022-12-15T06:08:42.678Z,-8.16
2022-12-15T06:09:42.659Z,-8.18
2022-12-15T06:10:42.649Z,-8.21
2022-12-15T06:11:42.639Z,-8.26
2022-12-15T06:12:42.627Z,-8.31
2022-12-15T06:13:42.627Z,-8.34
2022-12-15T06:14:42.596Z,-8.37
2022-12-15T06:15:42.624Z,-8.47
2022-12-15T06:16:51.052Z,-8.51
2022-12-15T06:17:43.554Z,-8.54
2022-12-15T06:18:43.575Z,-8.58
2022-12-15T06:19:43.545Z,-8.68
2022-12-15T06:20:42.524Z,-8.75
2022-12-15T06:21:42.518Z,-8.80
2022-12-15T06:22:48.168Z,-8.81
2022-12-15T06:23:43.493Z,-8.84
2022-12-15T06:24:42.483Z,-8.87
2022-12-15T06:25:42.456Z,-8.91
2022-12-15T06:26:42.474Z,-8.96
2022-12-15T06:27:42.441Z,-9.02
2022-12-15T06:28:42.431Z,-9.05
2022-12-15T06:29:42.427Z,-9.01
2022-12-15T06:30:42.402Z,-9.02
2022-12-15T06:31:42.439Z,-9.01
2022-12-15T06:32:42.378Z,-9.01
2022-12-15T06:33:42.371Z,-9.00
2022-12-15T06:34:42.339Z,-8.98
2022-12-15T06:35:42.338Z,-9.00
2022-12-15T06:36:42.321Z,-9.00
2022-12-15T06:37:42.330Z,-8.98
2022-12-15T06:38:42.316Z,-9.00
2022-12-15T06:39:42.288Z,-9.00
2022-12-15T06:40:42.278Z,-9.02
2022-12-15T06:41:42.258Z,-9.02
2022-12-15T06:42:42.274Z,-9.05
2022-12-15T06:43:42.256Z,-9.02
2022-12-15T06:44:42.228Z,-9.07
2022-12-15T06:45:42.207Z,-9.07
2022-12-15T06:46:42.257Z,-9.05
2022-12-15T06:47:42.217Z,-9.05
2022-12-15T06:48:42.192Z,-9.08
2022-12-15T06:49:42.164Z,-9.07
2022-12-15T06:50:42.154Z,-9.05
2022-12-15T06:51:42.135Z,-9.04
2022-12-15T06:52:42.142Z,-9.02
2022-12-15T06:53:42.153Z,-9.01
2022-12-15T06:54:42.110Z,-9.02
2022-12-15T06:55:42.094Z,-9.00
2022-12-15T06:56:42.081Z,-8.98
2022-12-15T06:57:42.075Z,-8.98
2022-12-15T06:58:42.080Z,-9.02
2022-12-15T06:59:42.052Z,-9.05
2022-12-15T07:00:42.035Z,-9.08
2022-12-15T07:01:42.300Z,-9.12
2022-12-15T07:02:42.156Z,-9.15
2022-12-15T07:03:42.141Z,-9.15
2022-12-15T07:04:41.987Z,-9.18
2022-12-15T07:05:41.969Z,-9.18
2022-12-15T07:06:41.967Z,-9.18
2022-12-15T07:07:41.969Z,-9.18
2022-12-15T07:08:42.099Z,-9.18
2022-12-15T07:09:41.918Z,-9.15
2022-12-15T07:10:41.914Z,-9.14
2022-12-15T07:11:41.896Z,-9.10
2022-12-15T07:12:41.885Z,-9.10
2022-12-15T07:13:41.899Z,-9.10
2022-12-15T07:14:41.866Z,-9.08
2022-12-15T07:15:41.921Z,-9.07
2022-12-15T07:16:41.943Z,-9.05
2022-12-15T07:17:41.824Z,-8.96
2022-12-15T07:18:41.833Z,-8.90
2022-12-15T07:19:41.829Z,-8.83
2022-12-15T07:20:41.797Z,-8.75
2022-12-15T07:21:41.779Z,-8.70
2022-12-15T07:22:41.782Z,-8.65
2022-12-15T07:23:58.101Z,-8.58
2022-12-15T07:24:42.754Z,-8.54
2022-12-15T07:25:41.746Z,-8.50
2022-12-15T07:26:41.723Z,-8.48
2022-12-15T07:27:41.701Z,-8.50
2022-12-15T07:28:41.714Z,-8.52
2022-12-15T07:29:41.691Z,-8.52
2022-12-15T07:30:41.672Z,-8.54
2022-12-15T07:31:41.721Z,-8.55
2022-12-15T07:32:41.653Z,-8.52
2022-12-15T07:33:41.649Z,-8.52
2022-12-15T07:34:41.627Z,-8.50
2022-12-15T07:35:41.621Z,-8.48
2022-12-15T07:36:42.840Z,-8.45
2022-12-15T07:37:41.587Z,-8.45
2022-12-15T07:38:41.607Z,-8.44
2022-12-15T07:39:41.594Z,-8.45
2022-12-15T07:40:41.547Z,-8.47
2022-12-15T07:41:41.536Z,-8.47
2022-12-15T07:42:41.526Z,-8.47
2022-12-15T07:43:41.558Z,-8.50
2022-12-15T07:44:41.504Z,-8.52
2022-12-15T07:45:44.422Z,-8.57
2022-12-15T07:46:42.528Z,-8.58
2022-12-15T07:47:41.466Z,-8.68
2022-12-15T07:48:41.473Z,-8.69
2022-12-15T07:49:41.434Z,-8.73
2022-12-15T07:50:41.454Z,-8.76
2022-12-15T07:51:41.414Z,-8.76
2022-12-15T07:52:41.413Z,-8.84
2022-12-15T07:53:41.404Z,-8.84
2022-12-15T07:54:41.388Z,-8.86
2022-12-15T07:56:05.687Z,-8.86
2022-12-15T07:56:42.378Z,-8.89
2022-12-15T07:57:41.353Z,-8.86
2022-12-15T07:58:41.359Z,-8.84
2022-12-15T07:59:41.320Z,-8.84
2022-12-15T08:00:46.885Z,-8.84
2022-12-15T08:01:42.429Z,-8.81
2022-12-15T08:02:41.418Z,-8.83
2022-12-15T08:03:41.725Z,-8.84
2022-12-15T08:04:41.262Z,-8.83
2022-12-15T08:05:41.252Z,-8.73
2022-12-15T08:06:41.259Z,-8.70
2022-12-15T08:07:41.235Z,-8.65
2022-12-15T08:08:41.229Z,-8.62
2022-12-15T08:09:41.207Z,-8.63
2022-12-15T08:10:41.227Z,-8.65
2022-12-15T08:11:41.177Z,-8.62
2022-12-15T08:12:41.164Z,-8.57
2022-12-15T08:14:42.146Z,-8.58
2022-12-15T08:15:41.118Z,-8.57
2022-12-15T08:16:41.205Z,-8.47
2022-12-15T08:17:41.114Z,-8.44
2022-12-15T08:18:41.114Z,-8.44
2022-12-15T08:19:41.073Z,-8.21
2022-12-15T08:20:41.081Z,-8.21
2022-12-15T08:21:41.067Z,-8.13
2022-12-15T08:22:41.035Z,-8.09
2022-12-15T08:23:41.029Z,-8.02
2022-12-15T08:24:41.033Z,-8.02
2022-12-15T08:25:41.001Z,-8.02
2022-12-15T08:26:40.996Z,-7.93
2022-12-15T08:27:40.992Z,-7.86
2022-12-15T08:28:40.974Z,-7.79
2022-12-15T08:29:56.347Z,-7.75
2022-12-15T08:30:41.951Z,-7.68
2022-12-15T08:31:40.950Z,-7.57
2022-12-15T08:32:40.922Z,-7.43
2022-12-15T08:33:40.906Z,-7.46
2022-12-15T08:34:40.910Z,-7.31
2022-12-15T08:35:56.497Z,-7.23
2022-12-15T08:36:42.021Z,-7.13
2022-12-15T08:37:40.874Z,-7.04
2022-12-15T08:38:40.851Z,-6.62
2022-12-15T08:39:40.878Z,-6.61
2022-12-15T08:40:40.818Z,-6.50
2022-12-15T08:41:40.798Z,-6.42
2022-12-15T08:42:40.831Z,-6.36
2022-12-15T08:43:47.569Z,-6.32
2022-12-15T08:44:41.809Z,-6.28
2022-12-15T08:45:40.765Z,-6.15
2022-12-15T08:46:40.747Z,-6.15
2022-12-15T08:47:40.742Z,-6.07
2022-12-15T08:48:40.725Z,-6.05
2022-12-15T08:49:40.719Z,-6.00
2022-12-15T08:50:40.704Z,-5.80
2022-12-15T08:51:40.696Z,-5.75
2022-12-15T08:52:41.201Z,-5.53
2022-12-15T08:53:40.664Z,-5.54
2022-12-15T08:54:40.666Z,-5.30
2022-12-15T08:55:40.632Z,-5.07
2022-12-15T08:56:40.627Z,-5.03
2022-12-15T08:57:40.614Z,-4.93
2022-12-15T08:58:40.614Z,-4.95
2022-12-15T08:59:40.601Z,-4.90
2022-12-15T09:00:40.572Z,-4.92
2022-12-15T09:01:40.803Z,-4.90
2022-12-15T09:02:40.689Z,-4.89
2022-12-15T09:03:40.542Z,-4.85
2022-12-15T09:04:40.630Z,-4.86
2022-12-15T09:05:40.502Z,-4.74
2022-12-15T09:06:40.500Z,-4.68
2022-12-15T09:07:40.480Z,-4.58
2022-12-15T09:08:40.479Z,-4.36
2022-12-15T09:09:40.469Z,-4.20
2022-12-15T09:10:40.438Z,-4.12
2022-12-15T09:11:40.440Z,-4.10
2022-12-15T09:12:40.437Z,-4.01
2022-12-15T09:13:40.407Z,-3.94
2022-12-15T09:14:40.430Z,-3.91
2022-12-15T09:16:08.140Z,-3.85
2022-12-15T09:16:41.404Z,-3.79
2022-12-15T09:17:40.357Z,-3.67
2022-12-15T09:18:40.346Z,-3.57
2022-12-15T09:19:40.346Z,-3.53
2022-12-15T09:20:40.335Z,-3.42
2022-12-15T09:21:40.317Z,-3.35
2022-12-15T09:22:40.324Z,-3.31
2022-12-15T09:23:40.291Z,-3.31
2022-12-15T09:24:40.289Z,-3.09
2022-12-15T09:25:40.257Z,-3.10
2022-12-15T09:26:40.248Z,-3.05
2022-12-15T09:27:40.237Z,-3.02
2022-12-15T09:28:40.229Z,-2.96
2022-12-15T09:29:40.222Z,-2.97
2022-12-15T09:30:40.290Z,-2.94
2022-12-15T09:31:40.222Z,-2.89
2022-12-15T09:32:40.179Z,-2.88
2022-12-15T09:33:40.164Z,-2.81
2022-12-15T09:34:40.171Z,-2.70
2022-12-15T09:35:40.145Z,-2.71
2022-12-15T09:36:40.122Z,-2.64
2022-12-15T09:37:40.113Z,-2.55
2022-12-15T09:38:40.101Z,-2.53
2022-12-15T09:39:40.099Z,-2.48
2022-12-15T09:40:40.084Z,-2.48
2022-12-15T09:41:40.060Z,-2.43
2022-12-15T09:42:40.063Z,-2.40
2022-12-15T09:43:46.222Z,-2.34
2022-12-15T09:44:41.050Z,-2.27
2022-12-15T09:45:40.080Z,-2.24
2022-12-15T09:46:40.123Z,-2.20
2022-12-15T09:47:39.989Z,-2.15
2022-12-15T09:48:39.979Z,-2.12
2022-12-15T09:49:39.982Z,-2.06
2022-12-15T09:50:39.965Z,-2.03
2022-12-15T09:51:39.926Z,-1.91
2022-12-15T09:52:39.927Z,-1.91
2022-12-15T09:53:56.463Z,-1.84
2022-12-15T09:54:40.955Z,-1.80
2022-12-15T09:55:39.885Z,-1.79
2022-12-15T09:56:39.906Z,-1.76
2022-12-15T09:57:39.854Z,-1.70
2022-12-15T09:58:39.878Z,-1.67
2022-12-15T09:59:39.848Z,-1.61
2022-12-15T10:00:39.826Z,-1.59
2022-12-15T10:01:39.871Z,-1.52
2022-12-15T10:02:39.886Z,-1.49
2022-12-15T10:03:40.314Z,-1.43
2022-12-15T10:04:39.781Z,-1.25
2022-12-15T10:06:06.155Z,-1.27
2022-12-15T10:06:40.742Z,-1.22
2022-12-15T10:07:39.725Z,-1.17
2022-12-15T10:08:39.715Z,-1.13
2022-12-15T10:09:39.721Z,-1.12
2022-12-15T10:10:39.692Z,-1.07
2022-12-15T10:11:39.699Z,-0.99
2022-12-15T10:12:47.761Z,-0.94
2022-12-15T10:13:40.665Z,-0.91
2022-12-15T10:14:39.659Z,-0.80
2022-12-15T10:15:39.670Z,-0.75
2022-12-15T10:16:39.620Z,-0.72
2022-12-15T10:17:39.600Z,-0.69
2022-12-15T10:18:39.600Z,-0.61
2022-12-15T10:19:39.588Z,-0.61
2022-12-15T10:20:39.559Z,-0.52
2022-12-15T10:21:39.548Z,-0.44
2022-12-15T10:22:39.539Z,-0.46
2022-12-15T10:23:39.560Z,-0.43
2022-12-15T10:25:40.505Z,-0.29
2022-12-15T10:26:39.500Z,-0.23
2022-12-15T10:27:39.467Z,-0.22
2022-12-15T10:28:39.486Z,-0.21
2022-12-15T10:29:39.588Z,-0.14
2022-12-15T10:30:39.462Z,-0.05
2022-12-15T10:31:39.418Z,-0.01
2022-12-15T10:32:42.804Z,0.04
2022-12-15T10:33:39.394Z,0.13
2022-12-15T10:34:39.431Z,0.14
2022-12-15T10:35:39.375Z,0.18
2022-12-15T10:36:39.363Z,0.26
2022-12-15T10:37:39.341Z,0.24
2022-12-15T10:38:39.335Z,0.26
2022-12-15T10:39:39.329Z,0.28
2022-12-15T10:40:39.305Z,0.32
2022-12-15T10:41:39.284Z,0.49
2022-12-15T10:42:39.285Z,0.51
2022-12-15T10:43:39.262Z,0.55
2022-12-15T10:44:39.273Z,0.53
2022-12-15T10:45:39.233Z,0.60
2022-12-15T10:46:39.330Z,0.62
2022-12-15T10:47:39.213Z,0.62
2022-12-15T10:48:39.202Z,0.75
2022-12-15T10:49:39.206Z,0.80
2022-12-15T10:50:39.181Z,0.91
2022-12-15T10:51:39.166Z,0.94
2022-12-15T10:52:39.141Z,0.91
2022-12-15T10:53:39.132Z,0.86
2022-12-15T10:54:39.143Z,0.73
2022-12-15T10:55:39.111Z,0.75
2022-12-15T10:56:39.098Z,0.72
2022-12-15T10:57:39.088Z,0.69
2022-12-15T10:58:39.070Z,0.69
2022-12-15T10:59:39.059Z,0.68
2022-12-15T11:00:39.060Z,0.68
2022-12-15T11:01:39.207Z,0.66
2022-12-15T11:02:39.284Z,0.72
2022-12-15T11:03:40.153Z,0.73
2022-12-15T11:04:39.027Z,0.75
2022-12-15T11:05:39.029Z,0.87
2022-12-15T11:06:38.972Z,0.90
2022-12-15T11:07:38.968Z,0.94
2022-12-15T11:08:38.946Z,0.98
2022-12-15T11:09:38.937Z,1.06
2022-12-15T11:10:39.053Z,1.06
2022-12-15T11:11:39.097Z,1.06
2022-12-15T11:12:38.886Z,1.12
2022-12-15T11:13:39.339Z,1.12
2022-12-15T11:14:38.874Z,1.18
2022-12-15T11:15:38.906Z,1.26
2022-12-15T11:16:38.837Z,1.34
2022-12-15T11:17:38.827Z,1.41
2022-12-15T11:18:38.813Z,1.33
2022-12-15T11:19:38.804Z,1.36
2022-12-15T11:20:38.805Z,1.41
2022-12-15T11:21:38.785Z,1.33
2022-12-15T11:22:38.764Z,1.37
2022-12-15T11:23:38.754Z,1.40
2022-12-15T11:24:38.733Z,1.47
2022-12-15T11:25:38.749Z,1.51
2022-12-15T11:26:38.712Z,1.60
2022-12-15T11:27:38.702Z,1.62
2022-12-15T11:28:38.696Z,1.63
2022-12-15T11:29:38.681Z,1.55
2022-12-15T11:30:38.684Z,1.55
2022-12-15T11:31:38.660Z,1.58
2022-12-15T11:32:38.641Z,1.58
2022-12-15T11:33:38.641Z,1.65
2022-12-15T11:34:38.612Z,1.70
2022-12-15T11:35:38.641Z,1.77
2022-12-15T11:36:38.588Z,1.84
2022-12-15T11:37:38.580Z,1.88
2022-12-15T11:38:38.596Z,2.00
2022-12-15T11:39:38.561Z,2.03
2022-12-15T11:40:38.561Z,2.07
2022-12-15T11:41:38.562Z,1.98
2022-12-15T11:42:38.507Z,2.06
2022-12-15T11:43:38.490Z,2.09
2022-12-15T11:44:38.479Z,2.10
2022-12-15T11:45:38.492Z,2.16
2022-12-15T11:46:38.459Z,2.21
2022-12-15T11:47:38.449Z,2.25
2022-12-15T11:48:38.439Z,2.28
2022-12-15T11:49:41.397Z,2.35
2022-12-15T11:50:38.420Z,2.42
2022-12-15T11:51:38.398Z,2.41
2022-12-15T11:52:38.379Z,2.43
2022-12-15T11:53:38.367Z,2.39
2022-12-15T11:54:38.356Z,2.38
2022-12-15T11:55:41.485Z,2.38
2022-12-15T11:56:38.375Z,2.36
2022-12-15T11:57:38.315Z,2.31
2022-12-15T11:58:38.318Z,2.41
2022-12-15T11:59:38.288Z,2.49
2022-12-15T12:00:38.294Z,2.53
2022-12-15T12:01:38.326Z,2.49
2022-12-15T12:02:38.429Z,2.49
2022-12-15T12:03:38.234Z,2.53
2022-12-15T12:04:38.215Z,2.59
2022-12-15T12:05:38.229Z,2.59
2022-12-15T12:06:38.204Z,2.64
2022-12-15T12:07:41.943Z,2.66
2022-12-15T12:08:38.173Z,2.69
2022-12-15T12:09:38.155Z,2.66
2022-12-15T12:10:38.173Z,2.66
2022-12-15T12:11:38.131Z,2.72
2022-12-15T12:12:38.112Z,2.81
2022-12-15T12:13:38.105Z,2.81
2022-12-15T12:14:38.083Z,2.84
2022-12-15T12:15:38.224Z,2.77
2022-12-15T12:16:38.062Z,2.79
2022-12-15T12:17:38.052Z,2.74
2022-12-15T12:18:38.105Z,2.69
2022-12-15T12:19:38.074Z,2.71
2022-12-15T12:20:38.060Z,2.71
2022-12-15T12:21:38.023Z,2.77
2022-12-15T12:22:38.033Z,2.82
2022-12-15T12:23:38.003Z,2.90
2022-12-15T12:24:37.980Z,2.82
2022-12-15T12:25:38.024Z,2.84
2022-12-15T12:26:37.940Z,2.87
2022-12-15T12:27:37.919Z,2.84
2022-12-15T12:28:37.911Z,2.92
2022-12-15T12:29:37.899Z,2.95
2022-12-15T12:30:37.890Z,2.93
2022-12-15T12:31:37.869Z,3.02
2022-12-15T12:32:37.850Z,3.00
2022-12-15T12:33:37.849Z,3.02
2022-12-15T12:34:37.819Z,3.10
2022-12-15T12:35:37.907Z,2.93
2022-12-15T12:36:37.800Z,2.95
2022-12-15T12:37:37.789Z,2.97
2022-12-15T12:38:37.777Z,2.97
2022-12-15T12:39:37.760Z,3.00
2022-12-15T12:40:37.757Z,2.97
2022-12-15T12:41:37.740Z,2.95
2022-12-15T12:42:37.727Z,2.99
2022-12-15T12:43:37.713Z,2.97
2022-12-15T12:44:37.687Z,3.05
2022-12-15T12:45:37.698Z,3.17
2022-12-15T12:46:37.667Z,3.24
2022-12-15T12:47:37.678Z,3.24
2022-12-15T12:48:37.650Z,3.17
2022-12-15T12:49:37.636Z,3.15
2022-12-15T12:50:37.658Z,3.15
2022-12-15T12:51:37.603Z,2.99
2022-12-15T12:52:37.585Z,2.97